TRLK1: Toronto Lake

Data processed at Mon Sep 24 2018 22:32


All information presented herein is the property of the government of the United States of America and may be revised or deleted at any time without prior notice.
Dissemination of this information without the expressed written consent of the Public Affairs Office, Tulsa District U.S. Army Corps of Engineers is strictly prohibited.
These data are gathered electronically and, as presented, have not undergone any form of quality control. These data are not guaranteed to be valid or correct.
Go to home page.
Go to station list.
Go to home page.

Upstream stations:

Downstream station:
Previous Day
Next Day
Current Day
    
SHEF ID:       TRLK1     Toronto Lake
STATION TYPE:  RESERVOIR
Normal Pool:  Bottom =   896.00, Top =   901.50

               PRECIP ELEVATION   STORAGE    INFLOW   RELEASE  AIR-TEMP  WIND-DIRWIND-SPEED REL-HUMID SOLAR-RAD   VOLTAGE  BAT-LOAD
                   in        ft     ac-ft       cfs       cfs         F       deg       mph         %      W/m2      volt      volt
              Ccp-Rev   Ccp-Rev   Ccp-Rev  Regi-Rev  Regi-Rev   Ccp-Rev   Ccp-Rev   Ccp-Rev   Ccp-Rev   Ccp-Rev   Ccp-Rev   Ccp-Rev
(US/Central)
09/24 00:00      0.00    901.97     17570        20        20     62.85    198.30      1.40     92.65      0.00     13.58     12.81
09/24 01:00      0.00    901.97     17570        20        20     61.12    192.20      0.90     95.67      0.00     13.58     12.81
09/24 02:00      0.00    901.97     17570        20        20     60.04    191.50      0.90     98.63      0.00     13.58     12.81
09/24 03:00      0.00    901.97     17570        38        20     60.40    198.70      0.60     99.11      0.00     13.58     12.81
09/24 04:00      0.00    901.97     17570        36        20     59.85    196.20      0.60     98.90      0.00     13.59     12.81
09/24 05:00      0.00    901.97     17570        34        20     59.68    191.70      0.30     98.71      0.00     13.59     12.81
09/24 06:00      0.00    901.99     17615        32        20     60.64    193.80      0.20     98.61      0.00     13.57     12.81
09/24 07:00      0.00    901.98     17593        28        20     61.36    192.70      0.30     99.23      0.00     13.58     12.81
09/24 08:00      0.00    901.98     17593         6        20     61.84    183.10      0.20     99.20      2.10     13.59     12.89
09/24 09:00      0.00    901.97     17570         4        20     63.09    187.00      1.60     99.19     39.40     13.59     12.81
09/24 10:00      0.00    901.97     17570         6        20     65.37    191.90      2.70     97.43    128.60     13.59     12.89
09/24 11:00      0.00    901.97     17570         8        20     67.91    178.40      3.70     92.98    218.10     13.58     12.89
09/24 12:00      0.00    901.97     17570        12        20     71.15    182.90      4.00     84.12    337.20     13.58     12.81
09/24 13:00      0.00    901.97     17570        16        20     72.91    172.80      3.80     79.18    284.50     13.58     12.81
09/24 14:00      0.00    901.97     17570        20        20     73.42    179.50      4.80     78.14    220.20     13.58     12.89
09/24 15:00      0.00    901.97     17570        20        20     74.61    178.10      4.90     75.58    358.50     13.58     12.81
09/24 16:00      0.00    901.97     17570        20        20     77.13    177.20      6.50     68.89    529.80     13.58     12.81
09/24 17:00      0.00    901.96     17548        20        20     78.64    180.40      6.70     64.54    421.80     13.58     12.81
09/24 18:00      0.00    901.97     17570        20        20     77.63    182.20      5.90     66.82    132.40     13.58     12.81
09/24 19:00      0.00    901.98     17593        73        20     76.42    183.20      4.90     70.32     35.00     13.58     12.81
09/24 20:00      0.00    901.97     17570        73        20     73.96    178.00      2.10     76.61      0.00     13.56     12.81
09/24 21:00      0.00    901.98     17593       180        20     71.28    178.50      2.40     84.84      0.00     13.58     12.81
09/24 22:00      ----      ----      ----      -901      -901      ----      ----      ----      ----      ----      ----      ----
09/24 23:00      ----      ----      ----      ----      ----      ----      ----      ----      ----      ----      ----      ----